Monday, October 22, 2018, 1:19 AM GMT
Back to Local

CWEW, L'Assomption

Location: , , Canada Lat: 45.817
Local Time: 1:19 AM GMT ( 1:19 GMT) Lon: -73.433
Time Zone: GMT Elev: 68 ft

Show me the last for .
Show Coded

Time T Td Feel RH Dir Speed Gust Alt SLP Vis Weather Sky Remarks
2018-10-22 01:00 33 21 30 60 260° 3 - - 30.03 0 None
2018-10-22 00:00 36 22 31 56 280° 6 - - 30.03 0 None
2018-10-21 23:00 35 21 31 55 270° 5 - - 30.01 0 None
2018-10-21 22:00 39 19 34 44 280° 7 - - 29.99 0 Peak wind: 20 mph (18 kts) from 260° at 18 min
2018-10-21 21:00 40 21 34 47 290° 8 - - 29.97 0 None
2018-10-21 20:00 38 22 32 50 290° 8 - - 29.95 0 Peak wind: 20 mph (18 kts) from 310° at 37 min
2018-10-21 19:00 40 21 31 45 290° 12 18 - 29.94 0 None
2018-10-21 18:00 40 21 34 45 290° 10 - - 29.94 0 Peak wind: 19 mph (17 kts) from 310° at 31 min
2018-10-21 17:00 38 20 28 48 300° 12 21 - 29.93 0 Peak wind: 23 mph (20 kts) from 300° at 49 min
2018-10-21 16:00 37 17 26 44 310° 14 21 - 29.93 0 Peak wind: 20 mph (18 kts) from 310° at 53 min
2018-10-21 15:00 37 22 27 53 310° 13 18 - 29.93 0 Peak wind: 21 mph (19 kts) from 300° at 45 min
2018-10-21 14:00 37 21 27 51 300° 14 20 - 29.90 0 Peak wind: 20 mph (18 kts) from 310° at 46 min
2018-10-21 13:00 37 21 26 53 300° 13 20 - 29.89 0 Peak wind: 20 mph (18 kts) from 310° at 01 min
2018-10-21 12:00 35 22 23 59 300° 12 21 - 29.87 0 Peak wind: 20 mph (18 kts) from 310° at 57 min
2018-10-21 11:00 37 22 29 55 310° 12 - - 29.83 0 None
2018-10-21 10:00 35 25 28 67 280° 8 - - 29.80 0 None
2018-10-21 09:00 37 29 34 73 270° 3 - - 29.77 0 None
2018-10-21 08:00 36 29 32 75 250° 5 - - 29.75 0 None
2018-10-21 07:00 36 30 - 81 280° 1 - - 29.74 0 None
2018-10-21 06:00 36 30 33 78 260° 3 - - 29.72 0 None
2018-10-21 05:00 33 28 30 81 220° 3 - - 29.71 0 None
2018-10-21 04:00 34 29 31 80 220° 3 - - 29.68 0 None
2018-10-21 03:00 38 30 - 73 290° 2 - - 29.65 0 None
2018-10-21 02:00 40 31 35 69 300° 9 - - 29.62 0 None

Support USWX by starting your Amazon purchase here.